createdAt,value
2022-12-23T00:01:49.203Z,1.10
2022-12-23T00:04:17.918Z,1.45
2022-12-23T00:06:46.468Z,0.93
2022-12-23T00:09:14.962Z,0.80
2022-12-23T00:12:12.843Z,1.43
2022-12-23T00:14:58.520Z,0.97
2022-12-23T00:17:27.158Z,0.90
2022-12-23T00:19:55.656Z,1.03
2022-12-23T00:22:44.145Z,0.90
2022-12-23T00:25:14.017Z,1.20
2022-12-23T00:28:01.455Z,1.00
2022-12-23T00:30:30.158Z,1.00
2022-12-23T00:32:58.606Z,0.97
2022-12-23T00:35:27.102Z,0.90
2022-12-23T00:37:55.579Z,1.10
2022-12-23T00:40:41.584Z,0.90
2022-12-23T00:43:11.526Z,1.10
2022-12-23T00:45:40.027Z,1.20
2022-12-23T00:48:25.664Z,0.80
2022-12-23T00:50:54.729Z,0.90
2022-12-23T00:53:23.294Z,0.93
2022-12-23T00:55:52.254Z,1.20
2022-12-23T00:58:22.858Z,0.83
2022-12-23T01:01:08.510Z,0.90
2022-12-23T01:03:54.676Z,1.10
2022-12-23T01:06:23.181Z,1.00
2022-12-23T01:08:51.743Z,0.85
2022-12-23T01:11:22.589Z,0.90
2022-12-23T01:13:52.446Z,1.00
2022-12-23T01:16:20.927Z,0.90
2022-12-23T01:18:49.385Z,1.10
2022-12-23T01:21:21.062Z,0.93
2022-12-23T01:23:49.480Z,1.27
2022-12-23T01:26:17.992Z,0.90
2022-12-23T01:28:46.865Z,0.83
2022-12-23T01:31:16.843Z,0.93
2022-12-23T01:33:46.071Z,0.70
2022-12-23T01:36:14.803Z,1.10
2022-12-23T01:38:43.336Z,0.80
2022-12-23T01:41:37.660Z,0.80
2022-12-23T01:44:38.567Z,1.07
2022-12-23T01:47:14.089Z,0.83
2022-12-23T01:49:43.234Z,0.97
2022-12-23T01:52:13.013Z,0.80
2022-12-23T01:54:42.338Z,1.00
2022-12-23T01:57:10.847Z,0.73
2022-12-23T01:59:56.890Z,1.02
2022-12-23T02:02:48.587Z,1.00
2022-12-23T02:05:18.065Z,1.03
2022-12-23T02:08:04.696Z,0.80
2022-12-23T02:10:40.814Z,1.08
2022-12-23T02:13:15.129Z,1.00
2022-12-23T02:16:06.818Z,1.00
2022-12-23T02:18:54.951Z,1.17
2022-12-23T02:21:53.629Z,0.97
2022-12-23T02:25:10.017Z,0.90
2022-12-23T02:27:56.421Z,1.07
2022-12-23T02:30:44.444Z,1.07
2022-12-23T02:33:38.964Z,0.80
2022-12-23T02:36:30.232Z,0.67
2022-12-23T02:39:07.909Z,1.10
2022-12-23T02:41:43.738Z,1.17
2022-12-23T02:44:19.970Z,1.30
2022-12-23T02:46:53.063Z,1.10
2022-12-23T02:49:25.994Z,1.20
2022-12-23T02:51:58.052Z,1.17
2022-12-23T02:54:31.286Z,1.03
2022-12-23T02:57:02.148Z,1.23
2022-12-23T02:59:36.919Z,1.00
2022-12-23T03:02:07.121Z,0.97
2022-12-23T03:04:35.750Z,1.17
2022-12-23T03:07:07.697Z,0.67
2022-12-23T03:09:42.231Z,0.93
2022-12-23T03:12:20.921Z,0.80
2022-12-23T03:15:05.663Z,0.90
2022-12-23T03:17:50.271Z,0.90
2022-12-23T03:20:26.226Z,1.00
2022-12-23T03:23:02.004Z,1.30
2022-12-23T03:25:34.805Z,1.10
2022-12-23T03:28:10.260Z,1.03
2022-12-23T03:30:43.458Z,1.00
2022-12-23T03:33:16.958Z,1.23
2022-12-23T03:35:54.940Z,1.20
2022-12-23T03:38:23.975Z,0.70
2022-12-23T03:40:57.331Z,0.93
2022-12-23T03:43:31.722Z,0.98
2022-12-23T03:46:04.433Z,0.90
2022-12-23T03:48:38.017Z,0.80
2022-12-23T03:51:12.183Z,1.07
2022-12-23T03:53:43.641Z,1.10
2022-12-23T03:56:15.849Z,1.00
2022-12-23T03:58:49.661Z,1.10
2022-12-23T04:01:26.956Z,1.23
2022-12-23T04:04:02.355Z,0.80
2022-12-23T04:06:37.263Z,0.80
2022-12-23T04:09:08.089Z,0.97
2022-12-23T04:11:37.758Z,0.87
2022-12-23T04:14:06.111Z,1.10
2022-12-23T04:16:34.809Z,0.85
2022-12-23T04:19:04.652Z,1.03
2022-12-23T04:21:32.973Z,1.30
2022-12-23T04:24:01.377Z,1.20
2022-12-23T04:26:29.652Z,1.13
2022-12-23T04:28:58.041Z,1.07
2022-12-23T04:31:26.409Z,1.05
2022-12-23T04:33:54.798Z,0.97
2022-12-23T04:36:25.021Z,0.60
2022-12-23T04:38:53.398Z,0.80
2022-12-23T04:41:21.780Z,0.98
2022-12-23T04:43:53.136Z,1.13
2022-12-23T04:46:21.869Z,0.80
2022-12-23T04:48:50.267Z,0.90
2022-12-23T04:51:18.598Z,1.20
2022-12-23T04:53:48.285Z,0.90
2022-12-23T04:56:16.553Z,1.30
2022-12-23T04:58:44.984Z,1.03
2022-12-23T05:01:14.047Z,1.30
2022-12-23T05:03:42.967Z,1.07
2022-12-23T05:06:11.538Z,1.00
2022-12-23T05:08:40.048Z,0.83
2022-12-23T05:11:09.788Z,0.90
2022-12-23T05:13:38.128Z,1.20
2022-12-23T05:16:07.485Z,0.80
2022-12-23T05:18:35.848Z,0.70
2022-12-23T05:21:04.225Z,0.90
2022-12-23T05:23:32.541Z,0.80
2022-12-23T05:26:00.970Z,0.80
2022-12-23T05:28:31.207Z,1.43
2022-12-23T05:31:00.931Z,0.80
2022-12-23T05:33:29.662Z,0.80
2022-12-23T05:35:58.497Z,1.40
2022-12-23T05:38:27.065Z,0.67
2022-12-23T05:40:55.829Z,0.97
2022-12-23T05:43:24.627Z,1.10
2022-12-23T05:45:54.530Z,0.80
2022-12-23T05:48:23.037Z,1.00
2022-12-23T05:50:51.970Z,0.90
2022-12-23T05:53:23.877Z,0.90
2022-12-23T05:55:52.323Z,1.17
2022-12-23T05:58:20.705Z,1.10
2022-12-23T06:00:49.116Z,0.67
2022-12-23T06:03:18.967Z,0.90
2022-12-23T06:05:51.924Z,0.97
2022-12-23T06:08:23.311Z,0.80
2022-12-23T06:10:51.655Z,0.70
2022-12-23T06:13:20.206Z,0.70
2022-12-23T06:15:48.542Z,1.37
2022-12-23T06:18:18.271Z,1.17
2022-12-23T06:20:47.611Z,0.68
2022-12-23T06:23:15.880Z,1.00
2022-12-23T06:25:44.259Z,1.08
2022-12-23T06:28:12.549Z,0.80
2022-12-23T06:30:40.847Z,0.87
2022-12-23T06:33:09.240Z,0.80
2022-12-23T06:35:39.013Z,0.60
2022-12-23T06:38:11.842Z,0.90
2022-12-23T06:40:40.918Z,0.70
2022-12-23T06:43:11.002Z,0.90
2022-12-23T06:45:39.436Z,0.83
2022-12-23T06:48:08.440Z,0.80
2022-12-23T06:50:38.163Z,0.77
2022-12-23T06:53:06.509Z,0.80
2022-12-23T06:55:34.989Z,0.80
2022-12-23T06:58:03.398Z,0.70
2022-12-23T07:00:31.789Z,0.82
2022-12-23T07:03:00.415Z,0.67
2022-12-23T07:05:36.513Z,0.80
2022-12-23T07:08:07.439Z,0.80
2022-12-23T07:10:35.993Z,0.70
2022-12-23T07:13:04.305Z,0.70
2022-12-23T07:15:32.909Z,1.00
2022-12-23T07:18:01.206Z,0.60
2022-12-23T07:20:29.590Z,0.90
2022-12-23T07:22:58.544Z,1.15
2022-12-23T07:25:28.453Z,0.80
2022-12-23T07:31:19.998Z,0.90
2022-12-23T08:11:20.690Z,0.60
2022-12-23T08:13:49.608Z,0.85
2022-12-23T08:16:17.968Z,0.50
2022-12-23T08:18:46.377Z,0.80
2022-12-23T08:21:16.709Z,0.73
2022-12-23T08:23:47.115Z,0.90
2022-12-23T08:26:17.787Z,1.10
2022-12-23T08:28:47.901Z,0.93
2022-12-23T08:31:18.182Z,0.83
2022-12-23T08:33:49.789Z,1.20
2022-12-23T08:36:23.158Z,1.45
2022-12-23T08:38:53.701Z,0.93
2022-12-23T08:41:24.665Z,0.97
2022-12-23T08:43:55.900Z,0.82
2022-12-23T08:46:24.844Z,0.75
2022-12-23T08:48:54.279Z,0.93
2022-12-23T08:51:25.232Z,0.70
2022-12-23T08:54:00.181Z,1.00
2022-12-23T08:56:31.522Z,0.95
2022-12-23T08:59:01.705Z,1.00
2022-12-23T09:01:32.228Z,0.98
2022-12-23T09:04:03.120Z,1.03
2022-12-23T09:06:35.194Z,0.73
2022-12-23T09:09:04.403Z,0.70
2022-12-23T09:11:33.284Z,0.80
2022-12-23T09:14:03.111Z,0.80
2022-12-23T09:16:31.691Z,0.80
2022-12-23T09:19:00.277Z,0.87
2022-12-23T09:21:28.792Z,1.00
2022-12-23T09:23:57.213Z,0.90
2022-12-23T09:26:27.607Z,0.70
2022-12-23T09:28:56.767Z,1.07
2022-12-23T09:31:32.606Z,0.67
2022-12-23T09:34:05.093Z,1.00
2022-12-23T09:36:33.757Z,1.30
2022-12-23T09:39:02.253Z,0.87
2022-12-23T09:41:49.637Z,0.90
2022-12-23T09:44:41.766Z,0.93
2022-12-23T09:47:15.980Z,0.77
2022-12-23T09:49:51.528Z,0.70
2022-12-23T09:52:26.661Z,0.90
2022-12-23T09:54:56.392Z,1.00
2022-12-23T09:57:35.368Z,1.40
2022-12-23T10:00:08.817Z,0.93
2022-12-23T10:02:57.137Z,1.00
2022-12-23T10:05:36.963Z,1.30
2022-12-23T10:08:34.922Z,0.90
2022-12-23T10:11:07.960Z,0.80
2022-12-23T10:13:41.587Z,1.30
2022-12-23T10:16:16.006Z,0.93
2022-12-23T10:18:53.295Z,0.90
2022-12-23T10:21:29.702Z,1.07
2022-12-23T10:23:58.183Z,1.00
2022-12-23T10:26:30.375Z,1.10
2022-12-23T10:29:12.815Z,1.10
2022-12-23T10:31:52.398Z,0.80
2022-12-23T10:34:34.892Z,0.80
2022-12-23T10:37:11.219Z,0.90
2022-12-23T10:39:47.440Z,0.80
2022-12-23T10:42:24.675Z,0.80
2022-12-23T10:45:24.695Z,1.00
2022-12-23T10:48:08.629Z,1.60
2022-12-23T10:50:54.723Z,1.03
2022-12-23T10:53:35.758Z,1.20
2022-12-23T10:56:06.612Z,1.00
2022-12-23T10:58:37.931Z,1.07
2022-12-23T11:01:16.057Z,0.90
2022-12-23T11:04:00.662Z,1.10
2022-12-23T11:06:37.204Z,1.07
2022-12-23T11:09:12.509Z,1.05
2022-12-23T11:12:02.196Z,1.00
2022-12-23T11:14:42.661Z,1.13
2022-12-23T11:17:21.446Z,0.80
2022-12-23T11:19:50.073Z,0.80
2022-12-23T11:22:25.692Z,1.00
2022-12-23T11:24:54.258Z,0.70
2022-12-23T11:27:22.605Z,0.93
2022-12-23T11:29:55.581Z,0.60
2022-12-23T11:32:25.983Z,0.80
2022-12-23T11:34:56.845Z,0.87
2022-12-23T11:37:33.342Z,0.77
2022-12-23T11:40:02.160Z,0.90
2022-12-23T11:42:32.455Z,0.87
2022-12-23T11:45:01.648Z,0.87
2022-12-23T11:47:36.937Z,1.20
2022-12-23T11:50:32.789Z,0.97
2022-12-23T11:53:20.949Z,0.70
2022-12-23T11:55:59.220Z,1.20
2022-12-23T11:58:29.936Z,1.00
2022-12-23T12:01:00.295Z,1.30
2022-12-23T12:03:32.567Z,1.23
2022-12-23T12:06:03.503Z,1.40
2022-12-23T12:08:37.615Z,1.10
2022-12-23T12:11:13.422Z,1.07
2022-12-23T12:13:43.283Z,1.40
2022-12-23T12:16:32.294Z,1.10
2022-12-23T12:19:05.425Z,1.00
2022-12-23T12:21:39.605Z,0.90
2022-12-23T12:24:19.186Z,1.00
2022-12-23T12:26:52.449Z,1.10
2022-12-23T12:29:27.616Z,1.00
2022-12-23T12:31:58.876Z,1.00
2022-12-23T12:34:38.596Z,1.13
2022-12-23T12:37:20.947Z,1.10
2022-12-23T12:39:55.319Z,0.77
2022-12-23T12:42:31.841Z,0.97
2022-12-23T12:45:11.887Z,1.00
2022-12-23T12:47:56.046Z,1.00
2022-12-23T12:50:31.777Z,0.73
2022-12-23T12:53:07.361Z,1.27
2022-12-23T12:55:42.293Z,1.37
2022-12-23T12:58:21.337Z,1.10
2022-12-23T13:01:03.580Z,1.30
2022-12-23T13:04:01.085Z,1.27
2022-12-23T13:06:38.059Z,1.03
2022-12-23T13:09:16.557Z,1.00
2022-12-23T13:11:54.284Z,1.00
2022-12-23T13:14:34.721Z,1.20
2022-12-23T13:17:12.288Z,1.13
2022-12-23T13:19:48.655Z,1.00
2022-12-23T13:22:19.226Z,0.70
2022-12-23T13:24:58.660Z,1.13
2022-12-23T13:27:33.951Z,1.17
2022-12-23T13:30:07.116Z,1.33
2022-12-23T13:32:56.275Z,1.07
2022-12-23T13:35:36.368Z,1.10
2022-12-23T13:38:15.702Z,1.17
2022-12-23T13:40:55.070Z,1.37
2022-12-23T13:43:30.063Z,1.70
2022-12-23T13:46:03.077Z,1.10
2022-12-23T13:48:40.103Z,1.10
2022-12-23T13:51:13.857Z,1.13
2022-12-23T13:53:59.343Z,1.20
2022-12-23T13:56:39.859Z,1.50
2022-12-23T13:59:12.323Z,0.80
2022-12-23T14:01:47.848Z,1.00
2022-12-23T14:04:31.914Z,0.90
2022-12-23T14:07:02.326Z,1.07
2022-12-23T14:09:35.432Z,0.87
2022-12-23T14:12:20.663Z,1.30
2022-12-23T14:15:15.965Z,0.90
2022-12-23T14:17:52.772Z,0.80
2022-12-23T14:20:33.913Z,1.20
2022-12-23T14:23:16.858Z,1.00
2022-12-23T14:26:05.338Z,1.05
2022-12-23T14:28:48.639Z,0.70
2022-12-23T14:31:33.416Z,1.13
2022-12-23T14:34:22.463Z,1.10
2022-12-23T14:37:31.625Z,0.82
2022-12-23T14:40:19.992Z,1.13
2022-12-23T14:42:48.465Z,0.80
2022-12-23T14:45:31.012Z,0.63
2022-12-23T14:48:00.823Z,1.10
2022-12-23T14:51:24.637Z,1.10
2022-12-23T14:54:17.616Z,0.90
2022-12-23T14:57:01.702Z,0.73
2022-12-23T14:59:39.210Z,1.00
2022-12-23T15:02:19.130Z,0.88
2022-12-23T15:04:54.201Z,1.07
2022-12-23T15:07:27.287Z,0.83
2022-12-23T15:10:02.251Z,0.90
2022-12-23T15:12:56.842Z,1.10
2022-12-23T15:15:27.778Z,0.70
2022-12-23T15:18:03.690Z,1.03
2022-12-23T15:20:35.539Z,0.80
2022-12-23T15:23:13.194Z,0.77
2022-12-23T15:25:45.602Z,0.87
2022-12-23T15:28:21.793Z,0.87
2022-12-23T15:30:53.678Z,1.40
2022-12-23T15:36:28.582Z,0.90
2022-12-23T15:38:59.127Z,1.00
2022-12-23T15:41:28.519Z,0.90
2022-12-23T15:44:02.908Z,0.80
2022-12-23T15:46:33.407Z,0.70
2022-12-23T15:49:01.959Z,0.70
2022-12-23T15:52:05.766Z,1.00
2022-12-23T15:54:28.718Z,0.80
2022-12-23T15:56:59.995Z,0.70
2022-12-23T15:59:32.937Z,0.70
2022-12-23T16:02:32.623Z,0.80
2022-12-23T16:05:02.341Z,0.73
2022-12-23T16:07:37.166Z,0.60
2022-12-23T16:10:14.323Z,0.70
2022-12-23T16:12:43.254Z,0.50
2022-12-23T16:15:22.881Z,0.60
2022-12-23T16:17:51.143Z,0.98
2022-12-23T16:20:25.290Z,0.80
2022-12-23T16:22:58.697Z,0.83
2022-12-23T16:25:31.695Z,0.90
2022-12-23T16:28:05.039Z,0.93
2022-12-23T16:30:35.654Z,0.97
2022-12-23T16:33:06.884Z,0.87
2022-12-23T16:35:38.107Z,1.00
2022-12-23T16:38:14.456Z,0.70
2022-12-23T16:40:44.001Z,0.67
2022-12-23T16:43:12.382Z,1.10
2022-12-23T16:45:41.877Z,1.03
2022-12-23T16:48:17.005Z,0.80
2022-12-23T16:50:47.127Z,1.30
2022-12-23T16:53:17.126Z,0.90
2022-12-23T16:55:52.524Z,0.87
2022-12-23T16:58:25.435Z,0.70
2022-12-23T17:00:54.430Z,0.97
2022-12-23T17:03:23.064Z,0.80
2022-12-23T17:05:51.631Z,1.23
2022-12-23T17:08:21.969Z,0.97
2022-12-23T17:10:50.922Z,1.00
2022-12-23T17:13:20.098Z,0.97
2022-12-23T17:15:48.602Z,0.80
2022-12-23T17:18:18.870Z,1.40
2022-12-23T17:20:50.235Z,0.97
2022-12-23T17:23:27.424Z,1.23
2022-12-23T17:25:56.164Z,1.30
2022-12-23T17:28:25.244Z,1.07
2022-12-23T17:30:56.185Z,1.10
2022-12-23T17:33:27.994Z,1.13
2022-12-23T17:35:56.741Z,0.93
2022-12-23T17:38:30.131Z,0.80
2022-12-23T17:40:59.609Z,1.20
2022-12-23T17:43:28.453Z,1.80
2022-12-23T17:45:57.095Z,1.30
2022-12-23T17:48:31.224Z,0.90
2022-12-23T17:51:00.249Z,1.03
2022-12-23T17:53:30.011Z,1.20
2022-12-23T17:55:58.512Z,1.40
2022-12-23T17:58:26.800Z,1.20
2022-12-23T18:00:55.469Z,1.20
2022-12-23T18:03:24.845Z,1.17
2022-12-23T18:06:01.246Z,1.30
2022-12-23T18:08:32.495Z,1.20
2022-12-23T18:11:01.120Z,1.30
2022-12-23T18:13:29.708Z,1.43
2022-12-23T18:15:58.300Z,1.53
2022-12-23T18:18:35.573Z,1.07
2022-12-23T18:21:18.386Z,1.37
2022-12-23T18:23:48.267Z,1.00
2022-12-23T18:26:17.072Z,1.20
2022-12-23T18:28:45.730Z,1.63
2022-12-23T18:31:17.733Z,1.33
2022-12-23T18:33:46.455Z,1.60
2022-12-23T18:36:22.462Z,1.20
2022-12-23T18:38:53.084Z,1.23
2022-12-23T18:41:22.196Z,1.30
2022-12-23T18:43:51.101Z,1.00
2022-12-23T18:46:20.356Z,1.47
2022-12-23T18:48:49.650Z,1.20
2022-12-23T18:51:20.124Z,1.20
2022-12-23T18:53:49.356Z,1.23
2022-12-23T18:56:21.103Z,2.70
2022-12-23T18:58:50.234Z,1.42
2022-12-23T19:01:19.520Z,1.33
2022-12-23T19:03:48.124Z,1.40
2022-12-23T19:06:17.113Z,1.13
2022-12-23T19:08:46.003Z,1.27
2022-12-23T19:11:16.430Z,1.27
2022-12-23T19:13:46.460Z,1.40
2022-12-23T19:16:16.521Z,1.70
2022-12-23T19:18:45.908Z,1.30
2022-12-23T19:21:14.976Z,2.27
2022-12-23T19:23:44.364Z,1.30
2022-12-23T19:26:14.633Z,1.57
2022-12-23T19:28:43.646Z,1.40
2022-12-23T19:31:15.277Z,1.60
2022-12-23T19:33:45.649Z,1.60
2022-12-23T19:36:15.924Z,1.90
2022-12-23T19:38:44.711Z,2.27
2022-12-23T19:41:13.329Z,1.70
2022-12-23T19:43:44.957Z,1.50
2022-12-23T19:46:16.145Z,1.30
2022-12-23T19:48:44.986Z,1.67
2022-12-23T19:51:15.029Z,1.63
2022-12-23T19:53:44.828Z,1.60
2022-12-23T19:56:15.698Z,1.47
2022-12-23T19:58:45.162Z,1.50
2022-12-23T20:01:17.156Z,1.73
2022-12-23T20:03:47.324Z,1.80
2022-12-23T20:06:18.955Z,1.57
2022-12-23T20:08:48.730Z,1.70
2022-12-23T20:11:18.612Z,2.23
2022-12-23T20:13:48.390Z,1.17
2022-12-23T20:16:18.361Z,1.13
2022-12-23T20:18:46.876Z,1.80
2022-12-23T20:21:15.249Z,1.93
2022-12-23T20:23:47.109Z,1.60
2022-12-23T20:26:17.794Z,1.90
2022-12-23T20:28:46.727Z,1.80
2022-12-23T20:31:19.967Z,1.40
2022-12-23T20:33:49.012Z,1.40
2022-12-23T20:36:19.282Z,1.60
2022-12-23T20:38:48.934Z,1.43
2022-12-23T20:41:18.811Z,2.30
2022-12-23T20:44:02.797Z,2.90
2022-12-23T20:46:37.135Z,1.83
2022-12-23T20:49:05.590Z,1.17
2022-12-23T20:51:34.299Z,2.13
2022-12-23T20:54:02.857Z,1.33
2022-12-23T20:56:31.879Z,1.50
2022-12-23T20:59:02.428Z,1.43
2022-12-23T21:01:32.720Z,1.80
2022-12-23T21:04:05.095Z,1.60
2022-12-23T21:06:34.468Z,1.57
2022-12-23T21:09:05.056Z,1.67
2022-12-23T21:11:35.615Z,1.63
2022-12-23T21:14:07.103Z,1.93
2022-12-23T21:16:37.213Z,1.40
2022-12-23T21:19:07.913Z,1.53
2022-12-23T21:21:36.815Z,1.43
2022-12-23T21:24:05.888Z,1.40
2022-12-23T21:26:35.431Z,1.73
2022-12-23T21:29:05.313Z,1.80
2022-12-23T21:31:36.668Z,1.17
2022-12-23T21:34:06.812Z,1.40
2022-12-23T21:36:37.457Z,1.97
2022-12-23T21:39:22.041Z,1.87
2022-12-23T21:42:13.605Z,2.20
2022-12-23T21:45:05.290Z,1.50
2022-12-23T21:48:00.683Z,1.80
2022-12-23T21:51:16.476Z,1.30
2022-12-23T21:54:04.418Z,1.33
2022-12-23T21:56:53.958Z,1.37
2022-12-23T21:59:37.223Z,1.70
2022-12-23T22:02:06.421Z,2.00
2022-12-23T22:04:34.876Z,1.43
2022-12-23T22:07:04.577Z,1.73
2022-12-23T22:09:33.233Z,1.30
2022-12-23T22:12:01.621Z,1.20
2022-12-23T22:14:30.396Z,1.23
2022-12-23T22:16:58.823Z,1.70
2022-12-23T22:19:27.287Z,1.47
2022-12-23T22:21:55.676Z,2.20
2022-12-23T22:24:25.626Z,1.83
2022-12-23T22:26:53.979Z,1.60
2022-12-23T22:29:22.502Z,1.33
2022-12-23T22:31:53.109Z,2.17
2022-12-23T22:34:23.451Z,1.60
2022-12-23T22:36:51.868Z,1.43
2022-12-23T22:39:22.072Z,1.40
2022-12-23T22:41:53.063Z,1.50
2022-12-23T22:44:21.920Z,2.10
2022-12-23T22:46:50.669Z,1.57
2022-12-23T22:49:19.109Z,1.20
2022-12-23T22:51:48.219Z,1.60
2022-12-23T22:54:16.717Z,1.73
2022-12-23T22:56:45.839Z,2.23
2022-12-23T22:59:22.075Z,2.70
2022-12-23T23:01:51.504Z,1.40
2022-12-23T23:04:20.027Z,1.50
2022-12-23T23:06:48.428Z,1.60
2022-12-23T23:09:19.273Z,1.50
2022-12-23T23:11:47.777Z,1.60
2022-12-23T23:14:18.809Z,1.77
2022-12-23T23:16:47.427Z,1.43
2022-12-23T23:19:16.545Z,1.77
2022-12-23T23:21:47.002Z,1.80
2022-12-23T23:24:16.661Z,2.30
2022-12-23T23:26:45.171Z,1.37
2022-12-23T23:29:13.505Z,2.47
2022-12-23T23:31:44.265Z,1.87
2022-12-23T23:34:13.535Z,1.30
2022-12-23T23:36:42.676Z,1.27
2022-12-23T23:39:13.386Z,1.23
2022-12-23T23:41:42.087Z,2.20
2022-12-23T23:44:10.808Z,1.47
2022-12-23T23:46:39.464Z,1.50
2022-12-23T23:49:09.357Z,1.53
2022-12-23T23:51:37.976Z,1.17
2022-12-23T23:54:06.661Z,1.40
2022-12-23T23:56:38.772Z,2.07
2022-12-23T23:59:08.475Z,1.87
